Time;durP1;ratioP1;P1;durP2;ratioP2;P2;SDS_P1;SDS_P2;PMS_P1;PMS_P2;Temp;Humidity;BMP_temperature;BMP_pressure;BME280_temperature;BME280_humidity;BME280_pressure;Samples;Min_cycle;Max_cycle;Signal;HPM_P1;HPM_P2
2022/01/16 00:01:35;;;;;;;15.63;7.77;;;;;;;0.33;100.00;60840.97;5074364;28;20449;-76
2022/01/16 00:04:09;;;;;;;18.07;8.30;;;;;;;-0.97;100.00;60714.38;5075686;28;20449;-75
2022/01/16 00:06:38;;;;;;;14.37;8.03;;;;;;;0.19;100.00;60830.59;5075516;28;20449;-74
2022/01/16 00:09:07;;;;;;;14.73;8.00;;;;;;;0.27;100.00;60834.06;5075494;28;20965;-76
2022/01/16 00:11:35;;;;;;;15.67;7.63;;;;;;;0.21;100.00;60838.28;5074292;28;21023;-77
2022/01/16 00:14:04;;;;;;;17.27;7.90;;;;;;;0.27;100.00;60834.59;5075797;28;20536;-75
2022/01/16 00:16:32;;;;;;;13.43;7.50;;;;;;;0.24;100.00;60836.44;5074811;28;20516;-76
2022/01/16 00:19:01;;;;;;;17.43;8.07;;;;;;;0.30;100.00;60842.81;5075139;28;20493;-76
2022/01/16 00:21:36;;;;;;;14.30;7.57;;;;;;;0.36;100.00;60843.63;5075046;28;20434;-74
2022/01/16 00:24:06;;;;;;;14.77;7.67;;;;;;;0.32;100.00;60839.38;5075202;28;20430;-76
2022/01/16 00:26:36;;;;;;;12.30;7.03;;;;;;;0.31;100.00;60848.88;5075155;28;20450;-74
2022/01/16 00:29:07;;;;;;;19.00;7.87;;;;;;;-1.15;100.00;60687.81;5073438;28;21032;-75
2022/01/16 00:31:37;;;;;;;16.37;7.23;;;;;;;0.18;100.00;60824.56;5073960;28;20504;-76
2022/01/16 00:34:10;;;;;;;16.30;7.90;;;;;;;0.19;100.00;60831.13;5073655;28;20871;-77
2022/01/16 00:36:39;;;;;;;16.33;8.33;;;;;;;0.24;100.00;60831.44;5075517;28;20530;-75
2022/01/16 00:39:09;;;;;;;14.17;7.40;;;;;;;-1.21;100.00;60676.47;5074625;28;20450;-77
2022/01/16 00:41:40;;;;;;;16.03;8.13;;;;;;;0.29;100.00;60839.22;5074932;28;20871;-77
2022/01/16 00:44:07;;;;;;;19.10;8.53;;;;;;;0.30;100.00;60837.78;5074906;28;20482;-77
2022/01/16 00:46:35;;;;;;;17.43;7.87;;;;;;;-0.58;100.00;60749.59;5074581;28;20546;-76
2022/01/16 00:49:03;;;;;;;19.60;9.10;;;;;;;-0.72;100.00;60739.78;5074413;28;20458;-77
2022/01/16 00:51:30;;;;;;;16.03;8.47;;;;;;;-0.04;100.00;60807.28;5074343;28;20557;-74
2022/01/16 00:54:01;;;;;;;14.33;8.03;;;;;;;-0.09;100.00;60796.47;5074156;28;20488;-76
2022/01/16 01:02:00;;;;;;;19.30;8.13;;;;;;;-0.07;100.00;60801.63;5075183;28;20466;-74
2022/01/16 01:07:20;;;;;;;18.07;9.20;;;;;;;-0.74;100.00;60733.16;5074579;28;20496;-75
2022/01/16 01:09:51;;;;;;;20.13;9.20;;;;;;;-0.09;100.00;60801.47;5074526;28;20442;-76
2022/01/16 01:12:29;;;;;;;20.93;9.67;;;;;;;-0.36;100.00;60773.41;5074373;28;20457;-76
2022/01/16 01:15:07;;;;;;;17.80;10.10;;;;;;;0.05;100.00;60813.28;5074699;28;20504;-74
2022/01/16 01:17:43;;;;;;;18.80;9.80;;;;;;;0.04;100.00;60802.75;5074183;28;20533;-75
2022/01/16 01:20:14;;;;;;;17.47;9.17;;;;;;;-0.15;100.00;60792.63;5074078;28;20468;-76
2022/01/16 01:25:26;;;;;;;22.67;10.17;;;;;;;-0.05;100.00;60808.22;5074787;28;20454;-76
2022/01/16 01:27:53;;;;;;;16.60;9.37;;;;;;;-1.25;100.00;60677.25;5074345;28;20482;-75
2022/01/16 01:30:24;;;;;;;17.53;9.73;;;;;;;-0.09;100.00;60798.97;5073596;28;20454;-75
2022/01/16 01:32:54;;;;;;;19.80;9.53;;;;;;;-0.04;100.00;60801.78;5073626;28;20979;-75
2022/01/16 01:35:25;;;;;;;20.87;9.60;;;;;;;-0.06;100.00;60802.69;5073436;28;20474;-74
2022/01/16 01:37:54;;;;;;;21.40;10.30;;;;;;;-0.65;100.00;60744.66;5081816;28;20441;-75
2022/01/16 01:40:26;;;;;;;20.63;10.70;;;;;;;-1.25;100.00;60674.75;5073391;28;20446;-74
2022/01/16 01:51:00;;;;;;;17.90;9.20;;;;;;;0.12;100.00;60820.69;5073850;28;21007;-76
2022/01/16 01:51:31;;;;;;;21.20;9.73;;;;;;;-0.73;100.00;60731.19;5073518;28;20884;-73
2022/01/16 01:54:00;;;;;;;19.10;8.97;;;;;;;-0.28;100.00;60778.84;5073738;28;20505;-75
2022/01/16 01:56:32;;;;;;;25.53;12.30;;;;;;;-0.25;100.00;60779.53;5073584;28;20430;-75
2022/01/16 01:59:04;;;;;;;19.83;10.07;;;;;;;-2.09;100.00;60585.91;5073878;28;20880;-77
2022/01/16 02:01:32;;;;;;;16.70;9.13;;;;;;;-2.05;100.00;60593.16;5073262;28;20451;-75
2022/01/16 02:04:01;;;;;;;19.10;8.97;;;;;;;-1.47;100.00;60656.47;5073142;28;20495;-77
2022/01/16 02:06:35;;;;;;;24.40;11.07;;;;;;;-2.45;100.00;60552.88;5072777;28;20468;-73
2022/01/16 02:09:08;;;;;;;25.23;10.67;;;;;;;-0.84;100.00;60717.06;5072451;28;20457;-76
2022/01/16 02:11:44;;;;;;;25.63;10.87;;;;;;;-0.98;100.00;60708.31;5072624;28;20504;-75
2022/01/16 02:14:15;;;;;;;20.60;10.13;;;;;;;-1.00;100.00;60701.19;5073337;28;20509;-73
2022/01/16 02:28:10;;;;;;;20.97;10.63;;;;;;;-1.21;100.00;60678.44;5073071;28;20470;-73
2022/01/16 02:31:01;;;;;;;25.33;10.93;;;;;;;-1.35;100.00;60666.13;5072894;28;20439;-76
2022/01/16 02:36:27;;;;;;;31.93;14.40;;;;;;;-2.86;100.00;60515.06;5072693;28;20453;-74
2022/01/16 02:39:01;;;;;;;33.87;15.40;;;;;;;-1.33;100.00;60668.25;5072938;28;20508;-75
2022/01/16 02:41:31;;;;;;;30.40;14.67;;;;;;;-1.72;100.00;60625.03;5072925;28;20507;-75
2022/01/16 02:44:11;;;;;;;29.63;14.90;;;;;;;-3.48;100.00;60445.16;5072448;28;20431;-74
2022/01/16 02:46:44;;;;;;;30.43;15.77;;;;;;;-2.93;100.00;60500.72;5072793;28;20443;-74
2022/01/16 02:49:24;;;;;;;31.83;15.50;;;;;;;-1.41;100.00;60659.78;5072798;28;20450;-75
2022/01/16 02:51:59;;;;;;;33.37;15.00;;;;;;;-2.82;100.00;60511.81;5072439;28;20439;-73
2022/01/16 02:54:35;;;;;;;32.50;14.37;;;;;;;-1.58;100.00;60644.81;5072269;28;20517;-77
2022/01/16 02:57:06;;;;;;;41.10;17.97;;;;;;;-3.10;100.00;60482.78;5072422;28;20538;-76
2022/01/16 02:59:34;;;;;;;28.67;15.33;;;;;;;-1.51;100.00;60647.25;5072436;28;20439;-76
2022/01/16 03:02:07;;;;;;;31.00;14.20;;;;;;;-1.73;100.00;60623.97;5071923;28;20529;-75
2022/01/16 03:04:36;;;;;;;31.30;14.17;;;;;;;-1.65;100.00;60632.44;5072286;28;20459;-73
2022/01/16 03:07:15;;;;;;;21.67;10.57;;;;;;;-3.23;100.00;60466.56;5072134;28;20859;-74
2022/01/16 03:10:02;;;;;;;21.53;11.40;;;;;;;-3.15;100.00;60475.00;5072529;28;20867;-75
2022/01/16 03:12:31;;;;;;;33.50;15.43;;;;;;;-3.04;100.00;60486.63;5072518;28;20438;-74
2022/01/16 03:15:01;;;;;;;29.33;14.77;;;;;;;-3.24;100.00;60463.03;5072284;28;20488;-75
2022/01/16 03:17:50;;;;;;;35.60;15.83;;;;;;;-2.96;100.00;60500.06;5072328;28;20442;-75
2022/01/16 03:23:02;;;;;;;29.77;14.17;;;;;;;-1.27;100.00;60675.13;5072235;28;20430;-74
2022/01/16 03:25:41;;;;;;;35.50;13.27;;;;;;;-1.17;100.00;60685.69;5072011;28;20466;-75
2022/01/16 03:28:11;;;;;;;27.77;12.60;;;;;;;-0.88;100.00;60713.88;5069244;28;20466;-75
2022/01/16 03:30:41;;;;;;;38.40;12.90;;;;;;;-0.82;100.00;60719.19;5071886;28;20439;-75
2022/01/16 03:33:09;;;;;;;34.57;13.00;;;;;;;-0.84;100.00;60717.59;5072034;28;20999;-74
2022/01/16 03:35:59;;;;;;;37.47;14.57;;;;;;;-1.86;100.00;60612.72;5070592;28;20862;-75
2022/01/16 03:38:28;;;;;;;28.50;12.87;;;;;;;-0.59;100.00;60741.03;5071998;28;20786;-74
2022/01/16 03:40:58;;;;;;;24.10;12.23;;;;;;;-0.60;100.00;60747.47;5071862;28;20518;-77
2022/01/16 03:43:25;;;;;;;26.07;12.90;;;;;;;-2.45;100.00;60552.88;5071898;28;20442;-74
2022/01/16 03:45:52;;;;;;;27.23;12.43;;;;;;;-0.64;100.00;60741.25;5071992;28;20458;-76
2022/01/16 03:48:19;;;;;;;28.80;13.60;;;;;;;-2.45;100.00;60548.41;5077788;28;20446;-75
2022/01/16 03:50:47;;;;;;;28.07;13.93;;;;;;;-0.49;100.00;60754.09;5072997;28;20459;-74
2022/01/16 03:53:18;;;;;;;26.33;12.77;;;;;;;-0.99;100.00;60701.72;5071966;28;20435;-74
2022/01/16 03:55:48;;;;;;;30.00;15.40;;;;;;;-0.41;100.00;60768.13;5072213;28;20536;-75
2022/01/16 03:58:17;;;;;;;33.97;15.80;;;;;;;-1.79;100.00;60622.63;5071667;28;20525;-76
2022/01/16 04:00:48;;;;;;;31.93;16.43;;;;;;;-0.52;100.00;60750.94;5071787;28;20829;-75
2022/01/16 04:03:19;;;;;;;41.97;18.33;;;;;;;-0.43;100.00;60760.47;5071706;28;20442;-75
2022/01/16 04:05:47;;;;;;;33.07;16.17;;;;;;;-0.36;100.00;60767.88;5070797;28;20901;-74
2022/01/16 04:08:24;;;;;;;35.73;16.10;;;;;;;-0.50;100.00;60753.06;5071424;28;21006;-74
2022/01/16 04:10:56;;;;;;;33.47;15.47;;;;;;;-0.60;100.00;60743.00;5072313;28;20848;-76
2022/01/16 04:13:25;;;;;;;31.43;16.07;;;;;;;-0.67;100.00;60740.59;5071702;28;20666;-75
2022/01/16 04:15:57;;;;;;;32.50;15.83;;;;;;;-0.83;100.00;60718.13;5071149;28;20494;-75
2022/01/16 04:18:28;;;;;;;33.63;16.27;;;;;;;-0.89;100.00;60714.81;5071980;28;20442;-75
2022/01/16 04:20:57;;;;;;;31.60;16.47;;;;;;;-2.03;100.00;60597.25;5071095;28;20455;-73
2022/01/16 04:23:24;;;;;;;35.50;16.40;;;;;;;-0.83;100.00;60723.13;5070874;28;21012;-75
2022/01/16 04:25:53;;;;;;;32.70;16.13;;;;;;;-1.02;100.00;60693.53;5071013;28;20450;-77
2022/01/16 04:28:24;;;;;;;33.60;16.10;;;;;;;-1.13;100.00;60692.44;5071108;28;20474;-76
2022/01/16 04:30:59;;;;;;;31.00;16.23;;;;;;;-0.90;100.00;60716.75;5073257;28;20565;-75
2022/01/16 04:33:26;;;;;;;35.83;15.57;;;;;;;-1.31;100.00;60672.84;5075786;28;20429;-75
2022/01/16 04:35:58;;;;;;;36.70;16.13;;;;;;;-0.76;100.00;60728.03;5074923;28;20485;-75
2022/01/16 04:38:30;;;;;;;30.30;14.63;;;;;;;-0.63;100.00;60744.28;5073984;28;20460;-76
2022/01/16 04:43:52;;;;;;;29.40;14.90;;;;;;;-0.78;100.00;60728.41;5074952;28;20422;-75
2022/01/16 04:46:23;;;;;;;32.63;16.53;;;;;;;-0.88;100.00;60723.88;5074490;28;20449;-76
2022/01/16 04:49:00;;;;;;;30.13;16.33;;;;;;;-0.83;100.00;60718.13;5074701;28;20431;-77
2022/01/16 04:51:31;;;;;;;31.70;16.00;;;;;;;-0.80;100.00;60726.31;5074752;28;20535;-76
2022/01/16 04:54:01;;;;;;;32.60;15.73;;;;;;;-2.00;100.00;60590.44;5074231;28;20486;-75
2022/01/16 04:56:28;;;;;;;33.10;16.20;;;;;;;-0.69;100.00;60738.47;5074887;28;20447;-76
2022/01/16 04:58:58;;;;;;;33.13;16.10;;;;;;;-0.65;100.00;60739.66;5073343;28;20957;-74
2022/01/16 05:01:26;;;;;;;35.83;16.60;;;;;;;-2.41;100.00;60554.59;5074735;28;20442;-75
2022/01/16 05:03:55;;;;;;;33.17;15.47;;;;;;;-1.47;100.00;60656.47;5074452;28;20878;-75
2022/01/16 05:06:25;;;;;;;34.10;15.00;;;;;;;-0.65;100.00;60737.72;5073109;28;21024;-76
2022/01/16 05:08:53;;;;;;;26.90;14.73;;;;;;;-0.87;100.00;60716.91;5074212;28;20805;-74
2022/01/16 05:11:25;;;;;;;31.77;14.77;;;;;;;-1.88;100.00;60613.09;5074367;28;20446;-75
2022/01/16 05:16:46;;;;;;;37.37;15.67;;;;;;;-0.54;100.00;60753.81;5074397;28;20484;-75
2022/01/16 05:19:16;;;;;;;35.00;16.20;;;;;;;-0.65;100.00;60742.16;5074833;28;20433;-75
2022/01/16 05:21:44;;;;;;;41.63;19.10;;;;;;;-1.85;100.00;60611.81;5074501;28;20430;-75
2022/01/16 05:24:12;;;;;;;40.07;18.70;;;;;;;-1.90;100.00;60606.53;5073052;28;20438;-76
2022/01/16 05:26:41;;;;;;;39.50;19.20;;;;;;;-1.94;100.00;60606.75;5074162;28;20454;-74
2022/01/16 05:29:09;;;;;;;44.90;19.00;;;;;;;-0.72;100.00;60730.28;5074045;28;20466;-77
2022/01/16 05:31:36;;;;;;;43.07;18.63;;;;;;;-0.74;100.00;60728.16;5074423;28;20439;-75
2022/01/16 05:34:08;;;;;;;39.40;19.17;;;;;;;-0.90;100.00;60711.75;5074006;28;20443;-74
2022/01/16 05:36:36;;;;;;;38.20;19.33;;;;;;;-0.63;100.00;60739.28;5074020;28;20492;-77
2022/01/16 05:39:04;;;;;;;42.07;20.10;;;;;;;-1.73;100.00;60623.97;5073769;28;20881;-77
2022/01/16 05:41:31;;;;;;;40.93;20.00;;;;;;;-1.44;100.00;60659.63;5073553;28;20451;-77
2022/01/16 05:44:00;;;;;;;39.77;19.07;;;;;;;-1.84;100.00;60619.81;5073962;28;20434;-77
2022/01/16 05:46:28;;;;;;;39.43;19.33;;;;;;;-0.64;100.00;60740.75;5073880;28;20451;-74
2022/01/16 05:48:56;;;;;;;47.73;20.53;;;;;;;-0.65;100.00;60737.72;5073516;28;20443;-76
2022/01/16 05:51:26;;;;;;;40.73;19.17;;;;;;;-0.70;100.00;60734.38;5073547;28;20886;-75
2022/01/16 05:53:56;;;;;;;43.00;20.07;;;;;;;-1.13;100.00;60687.44;5073427;28;20434;-75
2022/01/16 05:56:24;;;;;;;39.80;18.03;;;;;;;-1.91;100.00;60604.94;5073661;28;20490;-76
2022/01/16 05:58:54;;;;;;;40.80;19.70;;;;;;;-0.48;100.00;60760.69;5078566;28;20430;-75
2022/01/16 06:01:23;;;;;;;41.60;20.57;;;;;;;-1.97;100.00;60604.09;5077341;28;20556;-75
2022/01/16 06:03:53;;;;;;;42.60;20.33;;;;;;;-0.39;100.00;60765.22;5073781;28;20431;-76
2022/01/16 06:06:21;;;;;;;41.53;20.00;;;;;;;-1.19;100.00;60688.59;5073250;28;20443;-75
2022/01/16 06:08:50;;;;;;;39.27;18.20;;;;;;;-0.22;100.00;60782.72;5072859;28;20781;-75
2022/01/16 06:11:18;;;;;;;38.73;19.87;;;;;;;-1.55;100.00;60643.00;5073041;28;20801;-76
2022/01/16 06:13:45;;;;;;;42.43;20.07;;;;;;;-0.25;100.00;60779.53;5072791;28;20439;-76
2022/01/16 06:16:14;;;;;;;40.30;19.83;;;;;;;-1.02;100.00;60706.56;5072987;28;20587;-77
2022/01/16 06:18:41;;;;;;;45.83;20.90;;;;;;;-0.44;100.00;60764.41;5073115;28;21026;-76
2022/01/16 06:21:09;;;;;;;48.00;21.60;;;;;;;-0.78;100.00;60723.41;5073516;28;20443;-74
2022/01/16 06:23:38;;;;;;;44.80;21.57;;;;;;;-0.37;100.00;60767.34;5073428;28;20492;-78
2022/01/16 06:26:09;;;;;;;50.07;23.43;;;;;;;-0.37;100.00;60766.81;5073255;28;20427;-76
2022/01/16 06:28:37;;;;;;;51.43;23.10;;;;;;;-2.19;100.00;60575.88;5073149;28;20475;-76
2022/01/16 06:31:04;;;;;;;43.70;21.80;;;;;;;-0.33;100.00;60773.56;5072384;28;21086;-75
2022/01/16 06:33:34;;;;;;;41.97;21.40;;;;;;;-0.41;100.00;60762.59;5072539;28;20953;-75
2022/01/16 06:36:05;;;;;;;45.07;21.57;;;;;;;-0.28;100.00;60781.88;5072878;28;20900;-75
2022/01/16 06:38:34;;;;;;;43.30;21.20;;;;;;;-1.56;100.00;60651.94;5072464;28;21118;-76
2022/01/16 06:41:01;;;;;;;44.03;21.17;;;;;;;-0.06;100.00;60799.66;5072511;28;20451;-75
2022/01/16 06:43:33;;;;;;;41.70;20.97;;;;;;;-1.24;100.00;60675.25;5072494;28;20426;-75
2022/01/16 06:46:00;;;;;;;59.07;26.67;;;;;;;0.18;100.00;60825.09;5073116;28;20442;-74
2022/01/16 06:48:28;;;;;;;49.30;23.37;;;;;;;-0.32;100.00;60775.13;5072299;28;20458;-72
2022/01/16 06:50:56;;;;;;;52.77;25.33;;;;;;;-1.66;100.00;60636.38;5071898;28;20478;-74
2022/01/16 06:53:24;;;;;;;61.63;28.23;;;;;;;0.15;100.00;60826.91;5071659;28;20518;-74
2022/01/16 06:55:51;;;;;;;50.70;24.57;;;;;;;-1.54;100.00;60644.06;5072502;28;20477;-75
2022/01/16 06:58:18;;;;;;;53.67;24.77;;;;;;;-0.22;100.00;60782.72;5072451;28;20977;-73
2022/01/16 07:00:47;;;;;;;49.97;24.57;;;;;;;0.05;100.00;60811.31;5072609;28;20516;-75
2022/01/16 07:03:16;;;;;;;50.73;23.73;;;;;;;0.06;100.00;60809.88;5073275;28;20431;-75
2022/01/16 07:05:43;;;;;;;46.63;23.00;;;;;;;-0.66;100.00;60739.13;5072202;28;20504;-74
2022/01/16 07:08:11;;;;;;;44.00;22.57;;;;;;;-0.82;100.00;60721.69;5070997;28;20445;-74
2022/01/16 07:10:38;;;;;;;46.80;21.60;;;;;;;0.28;100.00;60840.69;5072387;28;20504;-75
2022/01/16 07:13:06;;;;;;;39.00;20.03;;;;;;;0.27;100.00;60839.09;5071997;28;20441;-75
2022/01/16 07:15:34;;;;;;;40.50;20.37;;;;;;;0.05;100.00;60811.31;5071750;28;20827;-74
2022/01/16 07:18:04;;;;;;;39.53;19.90;;;;;;;0.57;100.00;60866.41;5071852;28;20435;-75
2022/01/16 07:20:37;;;;;;;42.10;20.37;;;;;;;0.56;100.00;60867.31;5072045;28;20439;-74
2022/01/16 07:23:07;;;;;;;38.77;19.47;;;;;;;-0.86;100.00;60721.00;5072304;28;20938;-76
2022/01/16 07:25:34;;;;;;;40.20;20.07;;;;;;;-0.69;100.00;60737.94;5071381;28;20924;-77
2022/01/16 07:28:01;;;;;;;40.93;20.03;;;;;;;0.54;100.00;60862.69;5071696;28;20572;-75
2022/01/16 07:30:38;;;;;;;37.93;19.27;;;;;;;0.61;100.00;60870.66;5075129;28;20438;-76
2022/01/16 07:33:09;;;;;;;36.67;19.67;;;;;;;0.80;100.00;60890.81;5072581;28;20940;-75
2022/01/16 07:35:40;;;;;;;39.73;19.10;;;;;;;-0.80;100.00;60721.81;5071996;28;21004;-75
2022/01/16 07:38:10;;;;;;;36.43;19.80;;;;;;;0.94;100.00;60907.09;5071378;28;20450;-75
2022/01/16 07:43:28;;;;;;;41.33;20.57;;;;;;;-0.19;100.00;60791.41;5074234;28;20535;-75
2022/01/16 07:45:55;;;;;;;40.43;20.23;;;;;;;-0.01;100.00;60809.94;5071679;28;20446;-76
2022/01/16 07:48:27;;;;;;;39.37;20.70;;;;;;;0.96;100.00;60911.72;5071454;28;20442;-76
2022/01/16 07:50:55;;;;;;;43.40;20.30;;;;;;;0.89;100.00;60899.78;5071465;28;20895;-75
2022/01/16 07:53:23;;;;;;;38.37;19.77;;;;;;;1.33;100.00;60945.94;5071620;28;20523;-74
2022/01/16 07:55:53;;;;;;;34.93;18.90;;;;;;;-0.47;100.00;60756.22;5071668;28;20478;-75
2022/01/16 07:58:20;;;;;;;34.57;19.27;;;;;;;1.32;100.00;60947.38;5071778;28;20427;-76
2022/01/16 08:00:56;;;;;;;39.53;19.60;;;;;;;1.36;100.00;60947.16;5071386;28;20781;-75
2022/01/16 08:03:30;;;;;;;34.20;19.27;;;;;;;1.59;100.00;60973.53;5071307;28;20769;-76
2022/01/16 08:06:00;;;;;;;34.93;19.97;;;;;;;0.29;100.00;60839.22;5075773;28;20449;-76
2022/01/16 08:08:30;;;;;;;43.57;21.90;;;;;;;0.69;100.00;60891.66;5077017;28;20438;-76
2022/01/16 08:11:03;;;;;;;42.97;20.50;;;;;;;-0.17;100.00;60788.53;5080012;28;20443;-75
2022/01/16 08:13:37;;;;;;;37.80;20.30;;;;;;;0.67;100.00;60874.50;5075652;28;20871;-75
2022/01/16 08:16:09;;;;;;;39.67;20.53;;;;;;;1.34;100.00;60947.53;5075855;28;20493;-77
2022/01/16 08:18:45;;;;;;;34.40;18.10;;;;;;;1.63;100.00;60980.28;5075802;28;20435;-76
2022/01/16 08:21:15;;;;;;;37.87;18.23;;;;;;;0.21;100.00;60827.72;5074448;28;20811;-77
2022/01/16 08:23:42;;;;;;;32.93;18.07;;;;;;;1.85;100.00;61005.63;5075566;28;20446;-75
2022/01/16 08:26:11;;;;;;;39.00;20.33;;;;;;;0.95;100.00;60905.66;5074201;28;20447;-75
2022/01/16 08:28:40;;;;;;;39.93;20.87;;;;;;;2.48;100.00;61068.03;5073733;28;20478;-75
2022/01/16 08:31:08;;;;;;;37.57;21.17;;;;;;;2.71;100.00;61094.44;5075372;28;20431;-73
2022/01/16 08:33:54;;;;;;;34.50;19.10;;;;;;;2.62;100.00;61086.88;5075385;28;20476;-76
2022/01/16 08:36:30;;;;;;;34.13;18.23;;;;;;;2.92;100.00;61113.72;5075270;28;20511;-77
2022/01/16 08:39:05;;;;;;;29.27;16.10;;;;;;;1.73;100.00;60992.88;5074651;28;20445;-75
2022/01/16 08:41:37;;;;;;;29.23;15.60;;;;;;;2.97;100.00;61122.06;5076013;28;20426;-76
2022/01/16 08:44:07;;;;;;;28.77;14.80;;;;;;;2.98;100.00;61125.13;5075430;28;20435;-77
2022/01/16 08:46:34;;;;;;;26.87;14.40;;;;;;;2.74;100.00;61099.63;5074989;28;20469;-75
2022/01/16 08:49:07;;;;;;;27.27;14.60;;;;;;;1.35;100.00;60955.59;5074637;28;20450;-74
2022/01/16 08:51:36;;;;;;;31.33;15.90;;;;;;;3.10;100.00;61132.84;5074726;28;20450;-75
2022/01/16 08:54:04;;;;;;;31.10;16.50;;;;;;;3.16;100.00;61139.22;5075056;28;20910;-77
2022/01/16 08:56:36;;;;;;;35.20;18.30;;;;;;;3.21;100.00;61149.56;5074660;28;20482;-76
2022/01/16 08:59:04;;;;;;;37.87;19.27;;;;;;;3.17;100.00;61140.28;5074515;28;20528;-77
2022/01/16 09:01:35;;;;;;;35.03;17.90;;;;;;;3.10;100.00;61137.88;5074417;28;20789;-76
2022/01/16 09:04:07;;;;;;;35.27;19.30;;;;;;;3.08;100.00;61136.25;5074622;28;20476;-76
2022/01/16 09:06:38;;;;;;;38.27;19.27;;;;;;;1.48;100.00;60972.44;5075122;28;20521;-75
2022/01/16 09:09:05;;;;;;;38.27;18.97;;;;;;;1.57;100.00;60976.44;5072668;28;20541;-77
2022/01/16 09:11:39;;;;;;;39.87;18.93;;;;;;;2.74;100.00;61094.59;5074068;28;20513;-76
2022/01/16 09:14:08;;;;;;;38.63;20.10;;;;;;;2.54;100.00;61079.41;5074845;28;20439;-77
2022/01/16 09:19:39;;;;;;;39.00;20.53;;;;;;;1.80;100.00;61000.84;5074816;28;20871;-77
2022/01/16 09:22:07;;;;;;;37.17;18.20;;;;;;;1.21;100.00;60938.22;5074759;28;20443;-78
2022/01/16 09:24:35;;;;;;;34.90;18.20;;;;;;;2.86;100.00;61110.38;5074967;28;20447;-76
2022/01/16 09:27:04;;;;;;;33.97;16.73;;;;;;;2.95;100.00;61116.91;5074226;28;20454;-76
2022/01/16 09:29:32;;;;;;;31.70;17.80;;;;;;;2.57;100.00;61077.06;5072976;28;20470;-74
2022/01/16 09:32:05;;;;;;;39.77;19.37;;;;;;;1.54;100.00;60968.22;5073736;28;20462;-76
2022/01/16 09:34:39;;;;;;;34.77;17.50;;;;;;;2.86;100.00;61109.84;5074245;28;20445;-75
2022/01/16 09:37:09;;;;;;;34.60;18.37;;;;;;;1.61;100.00;60970.63;5072565;28;20478;-76
2022/01/16 09:42:34;;;;;;;28.17;15.83;;;;;;;3.60;100.00;61186.00;5073403;28;20438;-76
2022/01/16 09:45:02;;;;;;;32.37;16.27;;;;;;;2.89;100.00;61116.09;5074062;28;21040;-75
2022/01/16 09:47:30;;;;;;;30.43;16.73;;;;;;;3.53;100.00;61178.56;5073874;28;20457;-75
2022/01/16 09:50:05;;;;;;;32.90;17.47;;;;;;;3.57;100.00;61190.34;5072340;28;20462;-75
2022/01/16 09:52:35;;;;;;;29.73;16.57;;;;;;;3.30;100.00;61157.13;5073835;28;20444;-74
2022/01/16 09:55:04;;;;;;;29.83;16.07;;;;;;;3.25;100.00;61151.28;5073551;28;20438;-74
2022/01/16 09:57:35;;;;;;;33.93;14.40;;;;;;;3.51;100.00;61178.94;5073331;28;20486;-75
2022/01/16 10:00:14;;;;;;;42.47;16.40;;;;;;;3.57;100.00;61182.81;5073629;28;20431;-75
2022/01/16 10:02:42;;;;;;;29.03;15.50;;;;;;;3.56;100.00;61186.78;5073408;28;20435;-75
2022/01/16 10:05:30;;;;;;;27.50;14.83;;;;;;;3.58;100.00;61186.41;5073260;28;20438;-76
2022/01/16 10:08:02;;;;;;;34.23;14.53;;;;;;;3.71;100.00;61202.19;5073394;28;20538;-76
2022/01/16 10:10:33;;;;;;;24.87;13.97;;;;;;;1.92;100.00;61015.56;5073180;28;20458;-74
2022/01/16 10:16:05;;;;;;;23.73;13.53;;;;;;;3.58;100.00;61186.41;5074448;28;20485;-75
2022/01/16 10:18:38;;;;;;;24.90;12.77;;;;;;;2.09;100.00;61031.09;5078042;28;20435;-74
2022/01/16 10:21:10;;;;;;;25.03;13.27;;;;;;;3.28;100.00;61162.03;5075526;28;20430;-77
2022/01/16 10:23:48;;;;;;;25.00;13.87;;;;;;;3.53;100.00;61181.06;5072849;28;20961;-76
2022/01/16 10:26:19;;;;;;;27.07;14.40;;;;;;;2.42;100.00;61061.66;5073807;28;20504;-75
2022/01/16 10:28:46;;;;;;;27.63;15.77;;;;;;;3.77;100.00;61206.59;5071776;28;20561;-75
2022/01/16 10:31:19;;;;;;;30.33;15.50;;;;;;;2.46;100.00;61065.91;5071754;28;20430;-75
2022/01/16 10:33:46;;;;;;;28.67;15.63;;;;;;;4.21;100.00;61253.41;5073631;28;20516;-75
2022/01/16 10:36:35;;;;;;;27.77;13.73;;;;;;;4.56;100.00;61287.06;5071690;28;20496;-73
2022/01/16 10:39:11;;;;;;;26.17;14.53;;;;;;;5.01;100.00;61337.53;5073261;28;20435;-76
2022/01/16 10:41:42;;;;;;;33.63;14.03;;;;;;;5.56;100.00;61395.56;5073149;28;20453;-74
2022/01/16 10:47:27;;;;;;;28.13;13.73;;;;;;;6.60;100.00;61508.50;5072931;28;20973;-77
2022/01/16 10:50:13;;;;;;;27.03;13.93;;;;;;;7.71;100.00;61626.47;5068712;28;20462;-75
2022/01/16 10:52:59;;;;;;;24.57;14.20;;;;;;;8.33;100.00;61687.13;5072621;28;20438;-76
2022/01/16 10:55:49;;;;;;;27.23;13.10;;;;;;;9.16;100.00;61775.88;5072299;28;20937;-77
2022/01/16 10:58:19;;;;;;;19.10;11.47;;;;;;;8.75;100.00;61737.09;5072613;28;21147;-75
2022/01/16 11:00:53;;;;;;;20.37;11.80;;;;;;;8.28;100.00;61686.84;5072627;28;20965;-77
2022/01/16 11:03:22;;;;;;;18.73;11.27;;;;;;;9.58;100.00;61819.75;5071810;28;20482;-76
2022/01/16 11:05:53;;;;;;;18.07;11.77;;;;;;;8.48;100.00;61703.16;5072359;28;20442;-77
2022/01/16 11:08:35;;;;;;;28.77;13.93;;;;;;;9.55;100.00;61816.53;5072231;28;20457;-77
2022/01/16 11:11:19;;;;;;;21.60;12.43;;;;;;;11.01;100.00;61972.88;5072071;28;20435;-77
2022/01/16 11:13:54;;;;;;;18.37;11.17;;;;;;;12.00;100.00;62077.44;5071322;28;20461;-75
2022/01/16 11:16:25;;;;;;;17.53;11.30;;;;;;;11.68;100.00;62043.66;5072020;28;21097;-78
2022/01/16 11:18:55;;;;;;;21.13;12.70;;;;;;;11.14;100.00;61990.84;5071984;28;20196;-76
2022/01/16 11:21:43;;;;;;;24.07;13.00;;;;;;;12.69;100.00;62149.47;5072498;28;20196;-75
2022/01/16 11:24:34;;;;;;;19.73;11.57;;;;;;;13.06;100.00;62191.22;5070772;28;20196;-77
2022/01/16 11:27:02;;;;;;;16.60;11.40;;;;;;;12.49;100.00;62130.03;5070682;28;20208;-75
2022/01/16 11:29:30;;;;;;;17.60;11.67;;;;;;;12.27;100.00;62109.50;5071574;28;20236;-75
2022/01/16 11:32:08;;;;;;;20.60;12.20;;;;;;;12.04;100.00;62082.28;5070681;28;20200;-74
2022/01/16 11:34:42;;;;;;;19.60;11.47;;;;;;;12.38;100.00;62118.75;5072349;28;20309;-75
2022/01/16 11:40:27;;;;;;;17.77;10.97;;;;;;;12.96;100.00;62183.03;5070800;28;20582;-76
2022/01/16 11:43:14;;;;;;;17.73;10.93;;;;;;;13.97;100.00;62288.47;5071400;28;20196;-78
2022/01/16 11:45:57;;;;;;;16.13;11.07;;;;;;;14.48;100.00;62340.22;5071932;28;20269;-77
2022/01/16 11:48:36;;;;;;;28.53;12.07;;;;;;;14.20;100.00;62312.66;5072310;28;20603;-76
2022/01/16 11:51:08;;;;;;;22.87;11.57;;;;;;;14.26;100.00;62319.66;5071778;28;20219;-76
2022/01/16 11:54:06;;;;;;;16.83;10.27;;;;;;;14.68;100.00;62368.88;5071601;28;20204;-76
2022/01/16 11:57:14;;;;;;;22.80;10.77;;;;;;;14.76;100.00;62377.47;5070458;28;20281;-78
2022/01/16 11:59:47;;;;;;;19.93;11.77;;;;;;;14.77;100.00;62373.44;5039865;28;20205;-76
2022/01/16 12:02:23;;;;;;;19.27;10.50;;;;;;;14.89;100.00;62394.03;5071872;28;20209;-77
2022/01/16 12:05:04;;;;;;;16.17;11.27;;;;;;;14.36;100.00;62335.00;5071873;28;20199;-77
2022/01/16 12:07:51;;;;;;;21.23;11.03;;;;;;;15.60;100.00;62462.75;5072355;28;20200;-77
2022/01/16 12:10:43;;;;;;;15.00;10.73;;;;;;;15.62;100.00;62464.91;5071860;28;20279;-77
2022/01/16 12:13:57;;;;;;;16.17;11.10;;;;;;;14.53;100.00;62347.63;5071797;28;20203;-78
2022/01/16 12:16:45;;;;;;;19.47;11.40;;;;;;;13.99;100.00;62293.16;5071906;28;20243;-76
2022/01/16 12:19:45;;;;;;;15.83;11.00;;;;;;;14.42;100.00;62336.31;5071619;28;20209;-77
2022/01/16 12:22:32;;;;;;;16.00;10.37;;;;;;;13.80;100.00;62272.75;5071207;28;20196;-77
2022/01/16 12:25:08;;;;;;;16.87;10.67;;;;;;;12.72;100.00;62155.25;5073470;28;20532;-76
2022/01/16 12:27:53;;;;;;;15.17;11.23;;;;;;;13.65;100.00;62254.06;5074868;28;20200;-77
2022/01/16 12:30:48;;;;;;;15.67;11.00;;;;;;;14.38;100.00;62337.16;5071863;28;20240;-77
2022/01/16 12:36:34;;;;;;;16.33;10.97;;;;;;;13.70;100.00;62262.00;5070833;28;20694;-77
2022/01/16 12:39:06;;;;;;;25.13;14.10;;;;;;;13.68;100.00;62259.88;5071043;28;20200;-77